Time;durP1;ratioP1;P1;durP2;ratioP2;P2;SDS_P1;SDS_P2;PMS_P1;PMS_P2;Temp;Humidity;BMP_temperature;BMP_pressure;BME280_temperature;BME280_humidity;BME280_pressure;Samples;Min_cycle;Max_cycle;Signal;HPM_P1;HPM_P2
2021/06/20 06:01:04;;;;;;;7.60;2.30;;;;;;;;;;5151083;27;20320;-48
2021/06/20 06:03:33;;;;;;;7.47;2.80;;;;;;;;;;5129956;28;20458;-52
2021/06/20 06:06:16;;;;;;;7.63;2.73;;;;;;;;;;5130223;28;20481;-58
2021/06/20 06:08:43;;;;;;;5.90;2.60;;;;;;;;;;5122706;28;20452;-56
2021/06/20 06:11:12;;;;;;;9.60;2.87;;;;;;;;;;5110088;28;20573;-58
2021/06/20 06:13:53;;;;;;;7.67;2.63;;;;;;;;;;5112902;28;20784;-55
2021/06/20 06:16:31;;;;;;;10.47;2.37;;;;;;;;;;5109727;28;20528;-54
2021/06/20 06:18:59;;;;;;;6.53;2.60;;;;;;;;;;5109101;28;20475;-60
2021/06/20 06:21:28;;;;;;;7.70;4.67;;;;;;;;;;5117940;28;20470;-58
2021/06/20 06:23:55;;;;;;;7.20;2.33;;;;;;;;;;5116495;28;20487;-56
2021/06/20 06:26:22;;;;;;;6.27;2.20;;;;;;;;;;5123323;28;20446;-56
2021/06/20 06:28:51;;;;;;;5.03;2.40;;;;;;;;;;5114131;28;20447;-55
2021/06/20 06:31:21;;;;;;;5.43;2.20;;;;;;;;;;5129636;28;20481;-52
2021/06/20 06:33:49;;;;;;;10.87;2.53;;;;;;;;;;5127915;28;20442;-55
2021/06/20 06:36:16;;;;;;;5.27;1.90;;;;;;;;;;5115452;28;20467;-56
2021/06/20 06:38:45;;;;;;;6.80;2.57;;;;;;;;;;5120317;28;20455;-60
2021/06/20 06:41:18;;;;;;;6.60;2.70;;;;;;;;;;5129498;28;20453;-57
2021/06/20 06:43:46;;;;;;;7.50;1.87;;;;;;;;;;5108705;28;20457;-57
2021/06/20 06:46:32;;;;;;;6.87;2.20;;;;;;;;;;5107861;28;20448;-57
2021/06/20 06:49:01;;;;;;;4.73;2.03;;;;;;;;;;5109498;28;20449;-52
2021/06/20 06:51:29;;;;;;;7.43;3.27;;;;;;;;;;5109087;28;20523;-54
2021/06/20 06:54:07;;;;;;;5.53;2.47;;;;;;;;;;5120154;28;20478;-55
2021/06/20 06:56:35;;;;;;;9.80;2.70;;;;;;;;;;5128722;28;20467;-50
2021/06/20 06:59:02;;;;;;;5.83;2.20;;;;;;;;;;5111752;28;20553;-59
2021/06/20 07:01:29;;;;;;;5.80;1.63;;;;;;;;;;5116720;28;20450;-59
2021/06/20 07:03:57;;;;;;;5.10;2.03;;;;;;;;;;5116521;28;20473;-53
2021/06/20 07:06:27;;;;;;;11.40;2.43;;;;;;;;;;5116736;28;20457;-55
2021/06/20 07:08:55;;;;;;;5.67;2.03;;;;;;;;;;5114581;28;20457;-57
2021/06/20 07:11:24;;;;;;;7.57;2.10;;;;;;;;;;5119402;28;20477;-56
2021/06/20 07:13:52;;;;;;;7.00;2.43;;;;;;;;;;5105484;28;20497;-57
2021/06/20 07:16:20;;;;;;;5.73;2.07;;;;;;;;;;5098046;28;20465;-53
2021/06/20 07:18:48;;;;;;;7.53;2.40;;;;;;;;;;5099137;28;20475;-52
2021/06/20 07:21:15;;;;;;;5.00;1.80;;;;;;;;;;5094784;28;20576;-59
2021/06/20 07:23:44;;;;;;;6.40;1.90;;;;;;;;;;5102448;28;20483;-52
2021/06/20 07:26:13;;;;;;;5.33;1.53;;;;;;;;;;5110358;28;20439;-59
2021/06/20 07:28:40;;;;;;;8.50;2.33;;;;;;;;;;5095405;28;20463;-59
2021/06/20 07:31:09;;;;;;;7.17;1.73;;;;;;;;;;5096031;28;20479;-56
2021/06/20 07:33:37;;;;;;;5.30;2.20;;;;;;;;;;5098697;28;20463;-58
2021/06/20 07:36:05;;;;;;;4.93;1.60;;;;;;;;;;5114430;28;20458;-59
2021/06/20 07:38:32;;;;;;;5.03;1.60;;;;;;;;;;5096052;28;20466;-57
2021/06/20 07:41:04;;;;;;;4.60;1.63;;;;;;;;;;5111026;28;20488;-57
2021/06/20 07:43:31;;;;;;;7.00;1.77;;;;;;;;;;5107169;28;20457;-59
2021/06/20 07:46:07;;;;;;;23.07;2.20;;;;;;;;;;5115413;28;20450;-53
2021/06/20 07:48:37;;;;;;;5.27;1.70;;;;;;;;;;5110588;28;20471;-55
2021/06/20 07:51:05;;;;;;;4.40;2.03;;;;;;;;;;5115048;28;20463;-55
2021/06/20 07:53:33;;;;;;;4.50;1.97;;;;;;;;;;5095999;28;20471;-56
2021/06/20 07:56:07;;;;;;;6.97;1.83;;;;;;;;;;5110371;28;20459;-55
2021/06/20 07:58:40;;;;;;;6.10;1.77;;;;;;;;;;5100801;28;20527;-53
2021/06/20 08:01:10;;;;;;;4.00;1.53;;;;;;;;;;5095145;28;20535;-55
2021/06/20 08:03:38;;;;;;;3.10;1.10;;;;;;;;;;5111118;28;20474;-56
2021/06/20 08:06:18;;;;;;;4.67;1.90;;;;;;;;;;5096755;28;20458;-57
2021/06/20 08:08:54;;;;;;;4.50;1.90;;;;;;;;;;5093352;28;20530;-59
2021/06/20 08:11:23;;;;;;;5.07;1.60;;;;;;;;;;5107205;28;20452;-57
2021/06/20 08:13:56;;;;;;;4.37;1.83;;;;;;;;;;5109893;28;20510;-56
2021/06/20 08:16:24;;;;;;;3.20;1.40;;;;;;;;;;5115475;28;20517;-57
2021/06/20 08:18:52;;;;;;;4.83;1.60;;;;;;;;;;5115155;28;20431;-55
2021/06/20 08:21:21;;;;;;;4.33;2.13;;;;;;;;;;5109611;28;20582;-56
2021/06/20 08:23:49;;;;;;;4.00;2.00;;;;;;;;;;5103604;28;20461;-60
2021/06/20 08:26:16;;;;;;;4.17;1.70;;;;;;;;;;5103649;28;20520;-54
2021/06/20 08:28:45;;;;;;;9.33;2.30;;;;;;;;;;5094237;28;20468;-59
2021/06/20 08:31:12;;;;;;;4.07;1.90;;;;;;;;;;5116124;28;20660;-58
2021/06/20 08:33:40;;;;;;;5.40;1.83;;;;;;;;;;5097308;28;20548;-61
2021/06/20 08:36:08;;;;;;;5.27;2.40;;;;;;;;;;5099791;28;20465;-59
2021/06/20 08:38:36;;;;;;;5.30;2.77;;;;;;;;;;5097201;28;20459;-57
2021/06/20 08:41:03;;;;;;;8.03;3.60;;;;;;;;;;5104832;28;20546;-56
2021/06/20 08:43:31;;;;;;;3.30;1.40;;;;;;;;;;5104089;28;20467;-55
2021/06/20 08:45:59;;;;;;;4.23;1.80;;;;;;;;;;5104119;28;20601;-56
2021/06/20 08:48:28;;;;;;;6.30;2.00;;;;;;;;;;5111473;28;20505;-57
2021/06/20 08:51:00;;;;;;;6.77;1.50;;;;;;;;;;5098866;28;20452;-58
2021/06/20 08:53:27;;;;;;;4.10;1.77;;;;;;;;;;5111036;28;20524;-58
2021/06/20 08:55:55;;;;;;;5.20;2.10;;;;;;;;;;5101591;28;20456;-59
2021/06/20 08:58:26;;;;;;;4.60;1.57;;;;;;;;;;5107382;28;20515;-57
2021/06/20 09:00:54;;;;;;;4.33;1.67;;;;;;;;;;5102809;28;20488;-52
2021/06/20 09:03:28;;;;;;;5.10;2.87;;;;;;;;;;5098928;28;20479;-56
2021/06/20 09:05:59;;;;;;;8.33;1.80;;;;;;;;;;5101080;28;20447;-56
2021/06/20 09:08:28;;;;;;;5.03;1.50;;;;;;;;;;5113152;28;20461;-53
2021/06/20 09:10:56;;;;;;;4.17;1.70;;;;;;;;;;5111961;28;20459;-61
2021/06/20 09:13:25;;;;;;;3.77;1.80;;;;;;;;;;5108415;28;20475;-57
2021/06/20 09:16:00;;;;;;;4.90;1.50;;;;;;;;;;5093548;28;20444;-62
2021/06/20 09:18:37;;;;;;;6.30;2.37;;;;;;;;;;5098448;28;20462;-59
2021/06/20 09:21:10;;;;;;;4.10;1.83;;;;;;;;;;5101982;28;20487;-61
2021/06/20 09:23:42;;;;;;;4.50;1.53;;;;;;;;;;5106676;28;20508;-58
2021/06/20 09:26:12;;;;;;;3.70;1.37;;;;;;;;;;5100501;28;20519;-61
2021/06/20 09:28:40;;;;;;;4.10;1.20;;;;;;;;;;5097365;28;20483;-58
2021/06/20 09:31:19;;;;;;;5.40;1.70;;;;;;;;;;5105526;28;20440;-59
2021/06/20 09:33:48;;;;;;;6.13;2.20;;;;;;;;;;5102199;28;20454;-61
2021/06/20 09:36:15;;;;;;;4.90;1.57;;;;;;;;;;5101147;28;20444;-54
2021/06/20 09:38:44;;;;;;;4.47;1.87;;;;;;;;;;5114388;28;20447;-61
2021/06/20 09:41:13;;;;;;;4.47;1.63;;;;;;;;;;5112978;28;20467;-54
2021/06/20 09:43:52;;;;;;;4.00;1.27;;;;;;;;;;5113115;28;20463;-61
2021/06/20 09:46:35;;;;;;;4.97;1.80;;;;;;;;;;5108828;28;20451;-59
2021/06/20 09:49:03;;;;;;;4.70;1.80;;;;;;;;;;5099175;28;20491;-59
2021/06/20 09:51:31;;;;;;;5.07;1.70;;;;;;;;;;5097758;28;20462;-51
2021/06/20 09:53:58;;;;;;;3.80;1.40;;;;;;;;;;5112899;28;20459;-56
2021/06/20 09:56:28;;;;;;;4.90;1.57;;;;;;;;;;5107367;28;20548;-56
2021/06/20 09:59:00;;;;;;;4.47;1.50;;;;;;;;;;5090824;28;20480;-57
2021/06/20 10:01:39;;;;;;;4.60;2.20;;;;;;;;;;5104654;28;20484;-51
2021/06/20 10:04:08;;;;;;;5.90;2.77;;;;;;;;;;5090428;28;20448;-56
2021/06/20 10:06:35;;;;;;;4.43;1.63;;;;;;;;;;5105715;28;20458;-60
2021/06/20 10:09:13;;;;;;;4.63;1.70;;;;;;;;;;5091954;28;20469;-59
2021/06/20 10:11:43;;;;;;;4.47;2.10;;;;;;;;;;5099332;28;20467;-58
2021/06/20 10:14:12;;;;;;;5.20;1.30;;;;;;;;;;5102806;28;20469;-60
2021/06/20 10:16:41;;;;;;;4.50;1.90;;;;;;;;;;5103626;28;20505;-59
2021/06/20 10:19:13;;;;;;;4.70;1.93;;;;;;;;;;5099577;28;20512;-60
2021/06/20 10:21:43;;;;;;;4.37;1.67;;;;;;;;;;5106983;28;20479;-56
2021/06/20 10:24:13;;;;;;;6.03;2.30;;;;;;;;;;5112240;28;20448;-55
2021/06/20 10:26:42;;;;;;;4.77;1.60;;;;;;;;;;5130413;28;20454;-59
2021/06/20 10:29:16;;;;;;;5.00;1.30;;;;;;;;;;5112795;28;20459;-56
2021/06/20 10:32:04;;;;;;;5.93;2.07;;;;;;;;;;5112080;28;20612;-57
2021/06/20 10:34:33;;;;;;;4.33;1.57;;;;;;;;;;5129360;28;20506;-60
2021/06/20 10:37:02;;;;;;;6.27;2.40;;;;;;;;;;5132396;28;20721;-55
2021/06/20 10:39:31;;;;;;;5.10;1.53;;;;;;;;;;5118603;28;20445;-60
2021/06/20 10:42:15;;;;;;;4.17;1.33;;;;;;;;;;5111829;28;20491;-55
2021/06/20 10:44:56;;;;;;;3.87;1.70;;;;;;;;;;5090244;28;20498;-56
2021/06/20 10:47:30;;;;;;;8.50;5.47;;;;;;;;;;5087650;28;20479;-60
2021/06/20 10:50:06;;;;;;;3.50;1.20;;;;;;;;;;5077081;28;20470;-57
2021/06/20 10:52:43;;;;;;;4.17;1.50;;;;;;;;;;5089219;28;20532;-59
2021/06/20 10:55:14;;;;;;;4.20;1.37;;;;;;;;;;5076122;28;20459;-52
2021/06/20 10:57:46;;;;;;;4.33;1.77;;;;;;;;;;5083877;28;20452;-55
2021/06/20 11:00:26;;;;;;;11.10;2.17;;;;;;;;;;5097110;28;20484;-59
2021/06/20 11:03:07;;;;;;;5.87;1.67;;;;;;;;;;5095119;28;20551;-53
2021/06/20 11:05:45;;;;;;;6.30;1.30;;;;;;;;;;5096606;28;20447;-58
2021/06/20 11:08:14;;;;;;;4.40;1.50;;;;;;;;;;5096809;28;20507;-57
2021/06/20 11:10:41;;;;;;;7.93;1.83;;;;;;;;;;5096030;28;20455;-58
2021/06/20 11:13:20;;;;;;;4.17;1.40;;;;;;;;;;5096399;28;20456;-60
2021/06/20 11:16:01;;;;;;;6.27;1.70;;;;;;;;;;5075877;28;20473;-60
2021/06/20 11:18:28;;;;;;;6.80;1.50;;;;;;;;;;5075469;28;20547;-61
2021/06/20 11:20:57;;;;;;;9.17;4.63;;;;;;;;;;5076470;28;20488;-60
2021/06/20 11:23:29;;;;;;;5.10;1.80;;;;;;;;;;5074648;28;20459;-57
2021/06/20 11:26:02;;;;;;;4.33;1.37;;;;;;;;;;5092960;28;20459;-57
2021/06/20 11:28:35;;;;;;;4.33;1.90;;;;;;;;;;5093498;28;20471;-57
2021/06/20 11:31:06;;;;;;;7.07;4.43;;;;;;;;;;5082630;28;20520;-57
2021/06/20 11:33:36;;;;;;;4.03;1.33;;;;;;;;;;5075203;28;20452;-59
2021/06/20 11:36:07;;;;;;;4.60;1.53;;;;;;;;;;5094594;28;20748;-59
2021/06/20 11:38:37;;;;;;;6.47;2.10;;;;;;;;;;5085342;28;20516;-60
2021/06/20 11:41:15;;;;;;;4.87;1.47;;;;;;;;;;5074051;28;20473;-56
2021/06/20 11:43:53;;;;;;;4.77;1.20;;;;;;;;;;5073370;28;20453;-54
2021/06/20 11:46:24;;;;;;;4.57;1.50;;;;;;;;;;5085728;28;20456;-62
2021/06/20 11:48:56;;;;;;;4.80;1.77;;;;;;;;;;5086251;28;20491;-53
2021/06/20 11:51:32;;;;;;;6.20;1.80;;;;;;;;;;5094890;28;20480;-60
2021/06/20 11:57:12;;;;;;;7.03;2.00;;;;;;;;;;5083782;28;20465;-60
2021/06/20 11:59:52;;;;;;;4.40;1.60;;;;;;;;;;5073545;28;20714;-59
2021/06/20 12:02:22;;;;;;;7.47;1.43;;;;;;;;;;5080495;28;20828;-57
2021/06/20 12:04:51;;;;;;;4.50;1.33;;;;;;;;;;5078524;28;20446;-57
2021/06/20 12:07:24;;;;;;;5.73;1.60;;;;;;;;;;5081525;28;20445;-60
2021/06/20 12:09:53;;;;;;;5.10;1.43;;;;;;;;;;5081166;28;20465;-55
2021/06/20 12:12:21;;;;;;;4.93;1.30;;;;;;;;;;5093342;28;20452;-60
2021/06/20 12:17:40;;;;;;;5.70;1.90;;;;;;;;;;5092016;28;20455;-62
2021/06/20 12:20:13;;;;;;;5.00;1.67;;;;;;;;;;5079211;28;20476;-59
2021/06/20 12:22:54;;;;;;;5.80;1.40;;;;;;;;;;5088563;28;20440;-57
2021/06/20 12:25:43;;;;;;;7.70;2.33;;;;;;;;;;5092850;28;20498;-54
2021/06/20 12:28:13;;;;;;;4.43;1.20;;;;;;;;;;5058911;28;20441;-54
2021/06/20 12:30:43;;;;;;;6.77;1.50;;;;;;;;;;5092213;28;20454;-56
2021/06/20 12:33:12;;;;;;;7.60;1.27;;;;;;;;;;5073547;28;20478;-56
2021/06/20 12:35:40;;;;;;;4.83;1.43;;;;;;;;;;5093518;28;20451;-58
2021/06/20 12:38:22;;;;;;;5.37;1.30;;;;;;;;;;5090750;28;20543;-49
2021/06/20 12:40:51;;;;;;;7.23;1.37;;;;;;;;;;5091680;28;20480;-62
2021/06/20 12:43:23;;;;;;;5.50;1.50;;;;;;;;;;5091576;28;20491;-55
2021/06/20 12:46:06;;;;;;;5.70;1.63;;;;;;;;;;5093984;28;20440;-57
2021/06/20 12:48:42;;;;;;;5.30;2.00;;;;;;;;;;5069382;28;20449;-59
2021/06/20 12:51:13;;;;;;;5.07;1.60;;;;;;;;;;5069348;28;20453;-61
2021/06/20 12:53:45;;;;;;;5.00;1.20;;;;;;;;;;5069412;28;20461;-58
2021/06/20 12:56:25;;;;;;;5.17;1.20;;;;;;;;;;5069793;28;20451;-55
2021/06/20 12:58:58;;;;;;;5.03;1.40;;;;;;;;;;5080707;28;20708;-54
2021/06/20 13:01:26;;;;;;;5.87;1.60;;;;;;;;;;5079851;28;20555;-51
2021/06/20 13:06:39;;;;;;;6.97;2.23;;;;;;;;;;5076528;28;20461;-59
2021/06/20 13:09:09;;;;;;;8.73;3.00;;;;;;;;;;5084246;28;20456;-54
2021/06/20 13:11:37;;;;;;;5.37;1.67;;;;;;;;;;5083879;28;20428;-60
2021/06/20 13:14:12;;;;;;;6.00;2.73;;;;;;;;;;5072358;28;20563;-55
2021/06/20 13:16:41;;;;;;;7.00;3.10;;;;;;;;;;5082184;28;20478;-62
2021/06/20 13:19:09;;;;;;;5.10;1.43;;;;;;;;;;5068505;28;20453;-59
2021/06/20 13:21:38;;;;;;;9.20;4.53;;;;;;;;;;5067300;28;20472;-56
2021/06/20 13:24:14;;;;;;;6.93;2.67;;;;;;;;;;5076895;28;20550;-56
2021/06/20 13:26:43;;;;;;;8.43;4.13;;;;;;;;;;5068552;28;20473;-60
2021/06/20 13:29:15;;;;;;;13.30;6.57;;;;;;;;;;5068689;28;20488;-52
2021/06/20 13:31:46;;;;;;;6.37;1.70;;;;;;;;;;5080685;28;20479;-57
2021/06/20 13:34:14;;;;;;;8.00;3.43;;;;;;;;;;5084325;28;20688;-56
2021/06/20 13:36:47;;;;;;;4.80;1.20;;;;;;;;;;5082013;28;20531;-60
2021/06/20 13:39:15;;;;;;;4.50;1.30;;;;;;;;;;5083472;28;20474;-59
2021/06/20 13:41:43;;;;;;;5.63;1.70;;;;;;;;;;5086626;28;20491;-52
2021/06/20 13:44:18;;;;;;;7.80;3.57;;;;;;;;;;5086575;28;20511;-58
2021/06/20 13:46:49;;;;;;;7.80;3.27;;;;;;;;;;5076328;28;20464;-59
2021/06/20 13:49:20;;;;;;;26.30;21.97;;;;;;;;;;5072165;28;20457;-61
2021/06/20 13:51:53;;;;;;;15.57;12.83;;;;;;;;;;5086405;28;20452;-58
2021/06/20 13:54:23;;;;;;;16.10;13.50;;;;;;;;;;5078420;28;20485;-52
2021/06/20 13:56:53;;;;;;;8.07;2.87;;;;;;;;;;5076738;28;20457;-62
2021/06/20 13:59:22;;;;;;;6.07;3.07;;;;;;;;;;5072266;28;20473;-55
2021/06/20 14:01:53;;;;;;;5.50;1.80;;;;;;;;;;5074846;28;20477;-57
2021/06/20 14:04:20;;;;;;;11.30;4.70;;;;;;;;;;5071132;28;20465;-56
2021/06/20 14:06:49;;;;;;;7.17;3.37;;;;;;;;;;5086978;28;20460;-54
2021/06/20 14:09:23;;;;;;;7.10;3.20;;;;;;;;;;5078053;28;20457;-54
2021/06/20 14:11:51;;;;;;;9.60;2.70;;;;;;;;;;5071612;28;20555;-56
2021/06/20 14:14:19;;;;;;;5.73;1.60;;;;;;;;;;5084251;28;20448;-51
2021/06/20 14:16:46;;;;;;;6.27;1.87;;;;;;;;;;5082194;28;20592;-57
2021/06/20 14:19:16;;;;;;;6.23;2.50;;;;;;;;;;5075936;28;20515;-59
2021/06/20 14:21:43;;;;;;;9.90;6.30;;;;;;;;;;5084098;28;20489;-58
2021/06/20 14:24:11;;;;;;;6.90;2.90;;;;;;;;;;5080155;28;20491;-55
2021/06/20 14:26:40;;;;;;;9.67;4.27;;;;;;;;;;5081641;28;20469;-53
2021/06/20 14:29:08;;;;;;;6.60;2.50;;;;;;;;;;5085163;28;20455;-54
2021/06/20 14:31:41;;;;;;;9.20;5.17;;;;;;;;;;5069543;28;20463;-54
2021/06/20 14:34:11;;;;;;;13.97;8.47;;;;;;;;;;5073757;28;20504;-57
2021/06/20 14:36:39;;;;;;;7.80;2.30;;;;;;;;;;5090301;28;20452;-62
2021/06/20 14:39:06;;;;;;;8.60;1.47;;;;;;;;;;5089804;28;20776;-59
2021/06/20 14:41:35;;;;;;;7.60;2.17;;;;;;;;;;5081922;28;20485;-54
2021/06/20 14:44:13;;;;;;;6.40;2.63;;;;;;;;;;5070109;28;20524;-52
2021/06/20 14:46:42;;;;;;;15.10;2.30;;;;;;;;;;5071995;28;20524;-49
2021/06/20 14:49:16;;;;;;;8.07;2.33;;;;;;;;;;5090529;28;20515;-57
2021/06/20 14:51:47;;;;;;;6.93;2.20;;;;;;;;;;5075308;28;20463;-53
2021/06/20 14:54:22;;;;;;;7.30;1.83;;;;;;;;;;5099730;28;20471;-57
2021/06/20 14:57:02;;;;;;;8.37;3.83;;;;;;;;;;5070689;28;21010;-55
2021/06/20 14:59:33;;;;;;;7.70;2.70;;;;;;;;;;5088427;28;20490;-57
2021/06/20 15:02:07;;;;;;;5.53;1.87;;;;;;;;;;5075894;28;20485;-59
2021/06/20 15:04:37;;;;;;;7.33;2.47;;;;;;;;;;5073111;28;20466;-50
2021/06/20 15:07:08;;;;;;;5.23;1.90;;;;;;;;;;5078534;28;20490;-60
2021/06/20 15:09:38;;;;;;;6.50;1.47;;;;;;;;;;5070863;28;20470;-59
2021/06/20 15:12:07;;;;;;;4.63;1.50;;;;;;;;;;5072625;28;20506;-60
2021/06/20 15:14:40;;;;;;;5.90;1.37;;;;;;;;;;5073669;28;20452;-54
2021/06/20 15:17:08;;;;;;;11.33;6.60;;;;;;;;;;5088673;28;20448;-57
2021/06/20 15:19:51;;;;;;;7.40;3.37;;;;;;;;;;5089129;28;20462;-54
2021/06/20 15:22:21;;;;;;;8.57;2.93;;;;;;;;;;5076594;28;20507;-62
2021/06/20 15:24:52;;;;;;;6.13;2.30;;;;;;;;;;5074244;28;20488;-55
2021/06/20 15:27:19;;;;;;;6.43;2.20;;;;;;;;;;5075743;28;20456;-57
2021/06/20 15:29:48;;;;;;;6.93;2.53;;;;;;;;;;5077884;28;20473;-51
2021/06/20 15:32:27;;;;;;;5.10;1.90;;;;;;;;;;5074344;28;20445;-55
2021/06/20 15:35:03;;;;;;;5.07;1.40;;;;;;;;;;5081197;28;20468;-60
2021/06/20 15:37:32;;;;;;;9.50;3.40;;;;;;;;;;5079935;28;20463;-61
2021/06/20 15:40:03;;;;;;;4.80;1.50;;;;;;;;;;5078312;28;20461;-59
2021/06/20 15:42:33;;;;;;;9.90;2.13;;;;;;;;;;5082215;28;20484;-55
2021/06/20 15:48:25;;;;;;;8.80;2.90;;;;;;;;;;5074220;28;20498;-59
2021/06/20 15:50:55;;;;;;;5.33;1.70;;;;;;;;;;5077748;28;20484;-61
2021/06/20 15:53:30;;;;;;;5.73;1.90;;;;;;;;;;5077905;28;20584;-61
2021/06/20 15:56:12;;;;;;;7.03;2.50;;;;;;;;;;5079399;28;20471;-59
2021/06/20 15:58:56;;;;;;;6.63;1.80;;;;;;;;;;5070153;28;20490;-59
2021/06/20 16:01:57;;;;;;;9.50;5.77;;;;;;;;;;5073490;28;20469;-55
2021/06/20 16:10:43;;;;;;;6.67;2.47;;;;;;;;;;5085496;28;20448;-54
2021/06/20 16:13:15;;;;;;;9.00;4.33;;;;;;;;;;5069322;28;20493;-57
2021/06/20 16:15:45;;;;;;;5.60;2.10;;;;;;;;;;5083461;28;20507;-58
2021/06/20 16:18:32;;;;;;;9.60;3.00;;;;;;;;;;5086854;28;20457;-59
2021/06/20 16:21:09;;;;;;;15.33;8.63;;;;;;;;;;5072549;28;20482;-59
2021/06/20 16:23:38;;;;;;;15.33;7.27;;;;;;;;;;5081193;28;20484;-56
2021/06/20 16:26:11;;;;;;;5.30;2.10;;;;;;;;;;5075222;28;20436;-57
2021/06/20 16:28:43;;;;;;;7.73;4.70;;;;;;;;;;5081240;28;20461;-55
2021/06/20 16:31:10;;;;;;;8.20;4.10;;;;;;;;;;5071320;28;20519;-55
2021/06/20 16:33:49;;;;;;;9.27;6.70;;;;;;;;;;5080629;28;20504;-59
2021/06/20 16:36:18;;;;;;;7.00;2.83;;;;;;;;;;5082883;28;20512;-53
2021/06/20 16:38:46;;;;;;;7.03;3.50;;;;;;;;;;5080660;28;20512;-52
2021/06/20 16:41:18;;;;;;;7.23;2.80;;;;;;;;;;5079841;28;20499;-53
2021/06/20 16:43:47;;;;;;;5.00;2.17;;;;;;;;;;5076618;28;20481;-58
2021/06/20 16:46:16;;;;;;;7.33;2.53;;;;;;;;;;5070518;28;20683;-59
2021/06/20 16:48:51;;;;;;;7.80;2.50;;;;;;;;;;5072881;28;20480;-58
2021/06/20 16:51:19;;;;;;;6.27;2.00;;;;;;;;;;5067122;28;20537;-52
2021/06/20 16:53:47;;;;;;;9.30;3.20;;;;;;;;;;5073244;28;20503;-57
2021/06/20 16:56:16;;;;;;;6.40;1.90;;;;;;;;;;5084615;28;20506;-55
2021/06/20 16:58:46;;;;;;;6.93;3.30;;;;;;;;;;5074393;28;20456;-52
2021/06/20 17:01:25;;;;;;;10.77;7.17;;;;;;;;;;5069312;28;20770;-57
2021/06/20 17:03:58;;;;;;;10.80;3.53;;;;;;;;;;5071471;28;20499;-59
2021/06/20 17:06:26;;;;;;;5.60;2.40;;;;;;;;;;5071776;28;20511;-53
2021/06/20 17:08:53;;;;;;;7.43;4.17;;;;;;;;;;5075886;28;20504;-53
2021/06/20 17:11:23;;;;;;;6.80;3.10;;;;;;;;;;5072205;28;20452;-55
2021/06/20 17:13:52;;;;;;;11.73;2.90;;;;;;;;;;5038034;28;20645;-59
2021/06/20 17:16:21;;;;;;;11.47;6.83;;;;;;;;;;5053402;28;20461;-60
2021/06/20 17:18:54;;;;;;;12.77;5.50;;;;;;;;;;5046967;28;20443;-55
2021/06/20 17:21:22;;;;;;;7.67;2.80;;;;;;;;;;5033529;28;20442;-52
2021/06/20 17:23:51;;;;;;;9.90;4.70;;;;;;;;;;5029718;28;20504;-58
2021/06/20 17:26:24;;;;;;;9.07;4.73;;;;;;;;;;5046969;28;20469;-57
2021/06/20 17:28:51;;;;;;;14.13;7.60;;;;;;;;;;5041899;28;20515;-51
2021/06/20 17:31:21;;;;;;;21.53;7.67;;;;;;;;;;5033945;28;20467;-57
2021/06/20 17:33:50;;;;;;;14.97;7.07;;;;;;;;;;5040164;28;20453;-57
2021/06/20 17:36:19;;;;;;;13.00;8.67;;;;;;;;;;5043035;28;20454;-52
2021/06/20 17:38:46;;;;;;;14.10;6.13;;;;;;;;;;5039592;28;20522;-58
2021/06/20 17:41:37;;;;;;;11.87;5.00;;;;;;;;;;5046978;28;20449;-56
2021/06/20 17:44:10;;;;;;;9.60;4.90;;;;;;;;;;5047503;28;20484;-58
2021/06/20 17:51:53;;;;;;;12.67;7.20;;;;;;;;;;5089379;28;20491;-58
2021/06/20 17:54:22;;;;;;;10.63;6.87;;;;;;;;;;5075533;28;20253;-62
2021/06/20 17:56:55;;;;;;;13.07;5.43;;;;;;;;;;5083519;28;20843;-57
2021/06/20 17:59:24;;;;;;;9.20;4.90;;;;;;;;;;5073573;28;20460;-57
2021/06/20 18:01:51;;;;;;;10.80;5.27;;;;;;;;;;5081906;28;20459;-57
2021/06/20 18:04:44;;;;;;;16.37;7.60;;;;;;;;;;5079542;28;20502;-57
2021/06/20 18:07:11;;;;;;;6.93;2.87;;;;;;;;;;5087337;28;20482;-52
2021/06/20 18:09:39;;;;;;;8.50;3.53;;;;;;;;;;5082461;28;20474;-57
2021/06/20 18:12:43;;;;;;;12.63;5.80;;;;;;;;;;5087425;28;20521;-56
2021/06/20 18:15:27;;;;;;;9.93;4.30;;;;;;;;;;5087080;28;20491;-58
2021/06/20 18:18:11;;;;;;;8.10;3.20;;;;;;;;;;5074257;28;20449;-54
2021/06/20 18:20:47;;;;;;;14.50;2.80;;;;;;;;;;5075175;28;20451;-61
2021/06/20 18:23:59;;;;;;;9.97;3.83;;;;;;;;;;5077461;28;20507;-56
2021/06/20 18:26:39;;;;;;;5.90;2.67;;;;;;;;;;5081415;28;20550;-60
2021/06/20 18:29:07;;;;;;;9.97;3.63;;;;;;;;;;5082465;28;20453;-58
2021/06/20 18:31:40;;;;;;;8.23;3.80;;;;;;;;;;5080677;28;20566;-53
2021/06/20 18:34:07;;;;;;;8.40;4.63;;;;;;;;;;5088573;28;20467;-62
2021/06/20 18:36:37;;;;;;;10.67;3.13;;;;;;;;;;5079158;28;20503;-58
2021/06/20 18:39:09;;;;;;;7.70;3.27;;;;;;;;;;5090762;28;20514;-58
2021/06/20 18:41:47;;;;;;;11.30;3.73;;;;;;;;;;5093014;28;20448;-59
2021/06/20 18:44:35;;;;;;;7.27;3.03;;;;;;;;;;5087246;28;20484;-61
2021/06/20 18:47:12;;;;;;;7.40;2.93;;;;;;;;;;5093723;28;20455;-60
2021/06/20 18:49:42;;;;;;;6.30;2.40;;;;;;;;;;5076105;28;20453;-58
2021/06/20 18:52:23;;;;;;;7.10;3.43;;;;;;;;;;5077706;28;20452;-53
2021/06/20 18:54:56;;;;;;;6.90;3.10;;;;;;;;;;5093591;28;20449;-59
2021/06/20 18:57:23;;;;;;;7.30;2.80;;;;;;;;;;5094718;28;20498;-57
2021/06/20 18:59:51;;;;;;;9.90;3.00;;;;;;;;;;5085373;28;20471;-54
2021/06/20 19:02:21;;;;;;;8.40;2.47;;;;;;;;;;5078025;28;20436;-57
2021/06/20 19:05:06;;;;;;;12.63;6.30;;;;;;;;;;5081133;28;20441;-60
2021/06/20 19:07:34;;;;;;;7.50;3.20;;;;;;;;;;5093372;28;20454;-58
2021/06/20 19:10:06;;;;;;;7.77;3.80;;;;;;;;;;5096917;28;20491;-61
2021/06/20 19:12:43;;;;;;;9.20;3.63;;;;;;;;;;5110706;28;20463;-58
2021/06/20 19:15:27;;;;;;;9.00;3.13;;;;;;;;;;5108573;28;20501;-63
2021/06/20 19:18:05;;;;;;;10.80;4.30;;;;;;;;;;5097146;28;20546;-63
2021/06/20 19:20:33;;;;;;;8.77;3.20;;;;;;;;;;5111010;28;20450;-55
2021/06/20 19:23:00;;;;;;;8.60;3.47;;;;;;;;;;5117553;28;20557;-56
2021/06/20 19:25:29;;;;;;;10.33;3.83;;;;;;;;;;5104673;28;20494;-60
2021/06/20 19:27:57;;;;;;;8.17;3.43;;;;;;;;;;5096232;28;20459;-57
2021/06/20 19:30:34;;;;;;;8.30;2.80;;;;;;;;;;5094066;28;20443;-55
2021/06/20 19:33:05;;;;;;;13.73;4.80;;;;;;;;;;5086774;28;20479;-56
2021/06/20 19:35:32;;;;;;;11.60;5.97;;;;;;;;;;5090106;28;20443;-57
2021/06/20 19:38:07;;;;;;;11.30;4.27;;;;;;;;;;5087825;28;20775;-55
2021/06/20 19:43:32;;;;;;;6.43;2.90;;;;;;;;;;5087052;28;20533;-58
2021/06/20 19:46:08;;;;;;;6.93;3.40;;;;;;;;;;5076456;28;20506;-60
2021/06/20 19:48:37;;;;;;;7.40;3.10;;;;;;;;;;5075619;28;20454;-59
2021/06/20 19:51:14;;;;;;;10.13;2.87;;;;;;;;;;5075703;28;20497;-50
2021/06/20 19:53:41;;;;;;;18.57;5.50;;;;;;;;;;5075595;28;20565;-57
2021/06/20 19:56:16;;;;;;;7.07;3.13;;;;;;;;;;5076517;28;20517;-54
2021/06/20 19:58:44;;;;;;;12.23;3.83;;;;;;;;;;5089326;28;20513;-56
2021/06/20 20:01:12;;;;;;;8.50;3.03;;;;;;;;;;5077470;28;20474;-59
2021/06/20 20:03:41;;;;;;;8.77;3.20;;;;;;;;;;5091460;28;20553;-59
2021/06/20 20:06:09;;;;;;;17.50;6.17;;;;;;;;;;5090754;28;20442;-58
2021/06/20 20:08:44;;;;;;;8.33;3.43;;;;;;;;;;5095692;28;20462;-61
2021/06/20 20:11:17;;;;;;;7.30;2.77;;;;;;;;;;5079999;28;20446;-57
2021/06/20 20:13:59;;;;;;;7.20;3.53;;;;;;;;;;5081917;28;20467;-57
2021/06/20 20:16:30;;;;;;;8.17;2.90;;;;;;;;;;5083397;28;20450;-56
2021/06/20 20:19:02;;;;;;;10.43;3.07;;;;;;;;;;5089084;28;20489;-61
2021/06/20 20:21:33;;;;;;;8.30;3.00;;;;;;;;;;5086890;28;20482;-62
2021/06/20 20:24:09;;;;;;;6.73;2.90;;;;;;;;;;5081034;28;20473;-62
2021/06/20 20:26:40;;;;;;;8.83;3.70;;;;;;;;;;5095401;28;20429;-62
2021/06/20 20:29:17;;;;;;;7.70;3.40;;;;;;;;;;5078626;28;20447;-47
2021/06/20 20:31:51;;;;;;;8.00;3.50;;;;;;;;;;5091987;28;20462;-59
2021/06/20 20:34:20;;;;;;;8.73;2.90;;;;;;;;;;5096552;28;20486;-55
2021/06/20 20:37:04;;;;;;;6.07;2.63;;;;;;;;;;5096203;28;20635;-58
2021/06/20 20:39:52;;;;;;;7.50;2.50;;;;;;;;;;5075875;28;20450;-59
2021/06/20 20:42:38;;;;;;;8.90;4.00;;;;;;;;;;5077073;28;20522;-50
2021/06/20 20:45:07;;;;;;;8.50;2.70;;;;;;;;;;5075808;28;20493;-56
2021/06/20 20:47:35;;;;;;;6.70;2.43;;;;;;;;;;5075843;28;20444;-51
2021/06/20 20:50:22;;;;;;;8.43;2.60;;;;;;;;;;5075348;28;20441;-59
2021/06/20 20:52:51;;;;;;;7.90;2.07;;;;;;;;;;5085578;28;20507;-58
2021/06/20 20:55:19;;;;;;;5.97;2.23;;;;;;;;;;5095063;28;20467;-57
2021/06/20 20:57:49;;;;;;;8.23;3.20;;;;;;;;;;5095197;28;20453;-58
2021/06/20 21:00:18;;;;;;;7.20;1.90;;;;;;;;;;5092247;28;20448;-57
2021/06/20 21:02:46;;;;;;;9.60;4.33;;;;;;;;;;5075466;28;20456;-58
2021/06/20 21:05:19;;;;;;;6.60;2.13;;;;;;;;;;5076064;28;20525;-58
2021/06/20 21:07:47;;;;;;;6.30;2.80;;;;;;;;;;5074701;28;20445;-56
2021/06/20 21:10:17;;;;;;;6.50;2.53;;;;;;;;;;5078572;28;20456;-55
2021/06/20 21:13:03;;;;;;;6.50;2.30;;;;;;;;;;5086034;28;20441;-61
2021/06/20 21:15:31;;;;;;;6.00;1.97;;;;;;;;;;5091674;28;20484;-56
2021/06/20 21:17:59;;;;;;;6.90;2.53;;;;;;;;;;5094412;28;20535;-61
2021/06/20 21:20:35;;;;;;;5.30;2.17;;;;;;;;;;5079271;28;20552;-62
2021/06/20 21:23:03;;;;;;;8.20;2.70;;;;;;;;;;5079400;28;20452;-59
2021/06/20 21:25:32;;;;;;;7.30;2.23;;;;;;;;;;5082808;28;20436;-52
2021/06/20 21:28:06;;;;;;;6.00;2.73;;;;;;;;;;5079592;28;20845;-57
2021/06/20 21:30:34;;;;;;;5.90;2.30;;;;;;;;;;5084334;28;20471;-55
2021/06/20 21:33:01;;;;;;;6.60;2.43;;;;;;;;;;5094125;28;20443;-61
2021/06/20 21:35:39;;;;;;;5.40;1.93;;;;;;;;;;5103689;28;20471;-59